Time;durP1;ratioP1;P1;durP2;ratioP2;P2;SDS_P1;SDS_P2;PMS_P1;PMS_P2;Temp;Humidity;BMP_temperature;BMP_pressure;BME280_temperature;BME280_humidity;BME280_pressure;Samples;Min_cycle;Max_cycle;Signal;HPM_P1;HPM_P2
2021/04/16 00:00:19;;;;;;;1999.90;999.90;;;2.80;99.90;;;;;;5036956;28;20196;-78
2021/04/16 00:02:44;;;;;;;1999.90;999.90;;;2.80;99.90;;;;;;5035700;28;20162;-78
2021/04/16 00:05:11;;;;;;;1999.90;999.90;;;2.70;99.90;;;;;;5036024;28;20165;-78
2021/04/16 00:07:36;;;;;;;1999.90;999.90;;;2.70;99.90;;;;;;5035688;28;20180;-78
2021/04/16 00:10:07;;;;;;;1999.90;999.90;;;2.70;99.90;;;;;;5034832;28;20524;-78
2021/04/16 00:12:33;;;;;;;1999.90;999.90;;;2.70;99.90;;;;;;5034884;28;20159;-78
2021/04/16 00:14:58;;;;;;;1999.90;999.90;;;2.70;99.90;;;;;;5035287;28;20252;-78
2021/04/16 00:17:24;;;;;;;1999.90;999.90;;;2.60;99.90;;;;;;5033201;28;20197;-78
2021/04/16 00:19:50;;;;;;;1999.90;999.90;;;2.60;99.90;;;;;;5034576;28;20161;-78
2021/04/16 00:22:15;;;;;;;1999.90;999.90;;;2.60;99.90;;;;;;5034821;28;20169;-78
2021/04/16 00:24:41;;;;;;;1999.90;999.90;;;2.60;99.90;;;;;;5033223;28;20161;-78
2021/04/16 00:27:07;;;;;;;1999.90;999.90;;;2.50;99.90;;;;;;5034018;28;20234;-78
2021/04/16 00:29:32;;;;;;;1999.90;999.90;;;2.50;99.90;;;;;;5034618;28;20161;-79
2021/04/16 00:31:58;;;;;;;1999.90;999.90;;;2.50;99.90;;;;;;5034193;28;20157;-78
2021/04/16 00:34:26;;;;;;;1999.90;999.90;;;2.50;99.90;;;;;;5034338;28;20176;-78
2021/04/16 00:36:53;;;;;;;1999.90;999.90;;;2.50;99.90;;;;;;5033906;28;20538;-78
2021/04/16 00:39:21;;;;;;;1999.90;999.90;;;2.50;99.90;;;;;;5034517;28;20168;-78
2021/04/16 00:41:47;;;;;;;1999.90;999.90;;;2.40;99.90;;;;;;5034194;28;20224;-78
2021/04/16 00:44:13;;;;;;;1999.90;999.90;;;2.40;99.90;;;;;;5034492;28;20540;-78
2021/04/16 00:46:53;;;;;;;1999.90;999.90;;;2.40;99.90;;;;;;5035531;28;20617;-78
2021/04/16 00:49:23;;;;;;;1999.90;999.90;;;2.40;99.90;;;;;;5035761;28;20177;-78
2021/04/16 00:51:53;;;;;;;1999.90;999.90;;;2.40;99.90;;;;;;5034768;28;20632;-78
2021/04/16 00:54:23;;;;;;;1999.90;999.90;;;2.30;99.90;;;;;;5034563;28;20160;-78
2021/04/16 00:56:50;;;;;;;1999.90;999.90;;;2.30;99.90;;;;;;5034508;28;20607;-78
2021/04/16 00:59:20;;;;;;;1999.90;999.90;;;2.30;99.90;;;;;;5034909;28;20688;-78
2021/04/16 01:01:46;;;;;;;1999.90;999.90;;;2.30;99.90;;;;;;5034780;28;20528;-78
2021/04/16 01:04:12;;;;;;;1999.90;999.90;;;2.30;99.90;;;;;;5034267;28;20161;-78
2021/04/16 01:06:38;;;;;;;1999.90;999.90;;;2.30;99.90;;;;;;5035124;28;20189;-78
2021/04/16 01:09:04;;;;;;;1999.90;999.90;;;2.30;99.90;;;;;;5035245;28;20162;-78
2021/04/16 01:11:30;;;;;;;1999.90;999.90;;;2.30;99.90;;;;;;5035275;28;20546;-78
2021/04/16 01:13:56;;;;;;;1999.90;999.90;;;2.30;99.90;;;;;;5035541;28;20641;-78
2021/04/16 01:16:28;;;;;;;1999.90;999.90;;;2.30;99.90;;;;;;5035044;28;20256;-78
2021/04/16 01:18:55;;;;;;;1999.90;999.90;;;2.30;99.90;;;;;;5034470;28;20149;-78
2021/04/16 01:21:31;;;;;;;1999.90;999.90;;;2.30;99.90;;;;;;5035926;28;20647;-78
2021/04/16 01:24:20;;;;;;;1999.90;999.90;;;2.30;99.90;;;;;;5035335;28;20165;-78
2021/04/16 01:26:45;;;;;;;1999.90;999.90;;;2.20;99.90;;;;;;5027495;28;20268;-78
2021/04/16 01:29:11;;;;;;;1999.90;999.90;;;2.20;99.90;;;;;;5036018;28;20200;-78
2021/04/16 01:31:47;;;;;;;1999.90;999.90;;;2.20;99.90;;;;;;5034276;28;20165;-78
2021/04/16 01:34:23;;;;;;;1999.90;999.90;;;2.20;99.90;;;;;;5035542;28;20216;-78
2021/04/16 01:36:52;;;;;;;1999.90;999.90;;;2.10;99.90;;;;;;5035604;28;20204;-78
2021/04/16 01:39:18;;;;;;;1999.90;999.90;;;2.10;99.90;;;;;;5035438;28;20165;-78
2021/04/16 01:41:44;;;;;;;1999.90;999.90;;;2.10;99.90;;;;;;5034244;28;20165;-78
2021/04/16 01:44:15;;;;;;;1999.90;999.90;;;2.20;99.90;;;;;;5038068;28;20177;-78
2021/04/16 01:46:58;;;;;;;1999.90;999.90;;;2.20;99.90;;;;;;5039268;28;20284;-78
2021/04/16 01:49:27;;;;;;;1999.90;999.90;;;2.10;99.90;;;;;;5039563;28;20184;-78
2021/04/16 01:51:55;;;;;;;1999.90;999.90;;;2.10;99.90;;;;;;5038837;28;20196;-78
2021/04/16 01:54:31;;;;;;;1999.90;999.90;;;2.10;99.90;;;;;;5038873;28;20196;-78
2021/04/16 01:56:59;;;;;;;1999.90;999.90;;;2.10;99.90;;;;;;5038823;28;20200;-78
2021/04/16 01:59:30;;;;;;;1999.90;999.90;;;2.10;99.90;;;;;;5038923;28;20244;-78
2021/04/16 02:01:57;;;;;;;1999.90;999.90;;;2.00;99.90;;;;;;5038952;28;20142;-78
2021/04/16 02:04:23;;;;;;;1999.90;999.90;;;2.00;99.90;;;;;;5039204;28;20572;-78
2021/04/16 02:06:50;;;;;;;1999.90;999.90;;;2.10;99.90;;;;;;5038971;28;20185;-78
2021/04/16 02:09:19;;;;;;;1999.90;999.90;;;2.10;99.90;;;;;;5038823;28;20158;-78
2021/04/16 02:11:46;;;;;;;1999.90;999.90;;;2.10;99.90;;;;;;5038437;28;20201;-78
2021/04/16 02:14:16;;;;;;;1999.90;999.90;;;2.10;99.90;;;;;;5038922;28;20193;-78
2021/04/16 02:16:44;;;;;;;1999.90;999.90;;;2.10;99.90;;;;;;5038408;28;20203;-78
2021/04/16 02:19:11;;;;;;;1999.90;999.90;;;2.10;99.90;;;;;;5038530;28;20158;-78
2021/04/16 02:21:37;;;;;;;1999.90;999.90;;;2.20;99.90;;;;;;5038959;28;20169;-78
2021/04/16 02:24:05;;;;;;;1999.90;999.90;;;2.20;99.90;;;;;;5037910;28;20176;-78
2021/04/16 02:26:31;;;;;;;1999.90;999.90;;;2.30;99.90;;;;;;5038232;28;20181;-78
2021/04/16 02:28:56;;;;;;;1999.90;999.90;;;2.30;99.90;;;;;;5038101;28;20170;-78
2021/04/16 02:31:22;;;;;;;1999.90;999.90;;;2.30;99.90;;;;;;5037693;28;20172;-78
2021/04/16 02:33:48;;;;;;;1999.90;999.90;;;2.40;99.90;;;;;;5038003;28;20169;-78
2021/04/16 02:36:14;;;;;;;1999.90;999.90;;;2.40;99.90;;;;;;5037474;28;20196;-78
2021/04/16 02:38:39;;;;;;;1999.90;999.90;;;2.40;99.90;;;;;;5038160;28;20447;-78
2021/04/16 02:41:05;;;;;;;1999.90;999.90;;;2.50;99.90;;;;;;5037465;28;20177;-78
2021/04/16 02:43:31;;;;;;;1999.90;999.90;;;2.50;99.90;;;;;;5037921;28;20169;-78
2021/04/16 02:45:57;;;;;;;1999.90;999.90;;;2.50;99.90;;;;;;5038383;28;20172;-78
2021/04/16 02:48:23;;;;;;;1999.90;999.90;;;2.50;99.90;;;;;;5037968;28;20189;-78
2021/04/16 02:50:49;;;;;;;1999.90;999.90;;;2.50;99.90;;;;;;5037248;28;20404;-78
2021/04/16 02:53:14;;;;;;;1999.90;999.90;;;2.40;99.90;;;;;;5037134;28;20358;-78
2021/04/16 02:55:40;;;;;;;1999.90;999.90;;;2.40;99.90;;;;;;5036730;28;20166;-78
2021/04/16 02:58:06;;;;;;;1999.90;999.90;;;2.40;99.90;;;;;;5037420;28;20195;-77
2021/04/16 03:00:33;;;;;;;1999.90;999.90;;;2.50;99.90;;;;;;5037223;28;20199;-78
2021/04/16 03:02:59;;;;;;;1999.90;999.90;;;2.50;99.90;;;;;;5035690;28;20181;-78
2021/04/16 03:05:25;;;;;;;1999.90;999.90;;;2.50;99.90;;;;;;5037366;28;20165;-78
2021/04/16 03:07:52;;;;;;;1999.90;999.90;;;2.60;99.90;;;;;;5037268;28;20272;-78
2021/04/16 03:10:32;;;;;;;1999.90;999.90;;;2.60;99.90;;;;;;5037192;28;20702;-78
2021/04/16 03:12:58;;;;;;;1999.90;999.90;;;2.60;99.90;;;;;;5037446;28;20181;-78
2021/04/16 03:15:24;;;;;;;1999.90;999.90;;;2.70;99.90;;;;;;5036931;28;20169;-78
2021/04/16 03:17:50;;;;;;;1999.90;999.90;;;2.70;99.90;;;;;;5035380;28;20458;-78
2021/04/16 03:20:17;;;;;;;1999.90;999.90;;;3.00;99.90;;;;;;5036978;28;20520;-78
2021/04/16 03:22:43;;;;;;;1999.90;999.90;;;3.00;99.90;;;;;;5035709;28;20629;-78
2021/04/16 03:25:10;;;;;;;1999.90;999.90;;;3.00;99.90;;;;;;5036156;28;20288;-78
2021/04/16 03:27:37;;;;;;;1999.90;999.90;;;3.00;99.90;;;;;;5036330;28;20555;-78
2021/04/16 03:30:10;;;;;;;1999.90;999.90;;;3.10;99.90;;;;;;5035290;28;20248;-77
2021/04/16 03:32:35;;;;;;;1999.90;999.90;;;3.10;99.90;;;;;;5035274;28;20172;-78
2021/04/16 03:35:02;;;;;;;1999.90;999.90;;;3.20;99.90;;;;;;5035521;28;20165;-79
2021/04/16 03:37:27;;;;;;;1999.90;999.90;;;3.20;99.90;;;;;;5035861;28;20184;-78
2021/04/16 03:39:53;;;;;;;1999.90;999.90;;;3.20;99.90;;;;;;5036613;28;20245;-78
2021/04/16 03:42:19;;;;;;;1999.90;999.90;;;3.30;99.90;;;;;;5037243;28;20189;-78
2021/04/16 03:44:44;;;;;;;1999.90;999.90;;;3.40;99.90;;;;;;5034189;28;20172;-78
2021/04/16 03:47:10;;;;;;;1999.90;999.90;;;3.40;99.90;;;;;;5035090;28;20686;-78
2021/04/16 03:49:36;;;;;;;1999.90;999.90;;;3.50;99.90;;;;;;5034772;28;20165;-78
2021/04/16 03:52:03;;;;;;;1999.90;999.90;;;3.50;99.90;;;;;;5034832;28;20203;-78
2021/04/16 03:54:30;;;;;;;1999.90;999.90;;;3.60;99.90;;;;;;5034800;28;20491;-78
2021/04/16 03:56:55;;;;;;;1999.90;999.90;;;3.70;99.90;;;;;;5033841;28;20204;-78
2021/04/16 03:59:24;;;;;;;1999.90;999.90;;;3.70;99.90;;;;;;5034633;28;20169;-78
2021/04/16 04:01:50;;;;;;;1999.90;999.90;;;3.70;99.90;;;;;;5034162;28;20180;-78
2021/04/16 04:04:16;;;;;;;1999.90;999.90;;;3.70;99.90;;;;;;5034414;28;20161;-78
2021/04/16 04:06:42;;;;;;;1999.90;999.90;;;3.70;99.90;;;;;;5034156;28;20177;-79
2021/04/16 04:09:08;;;;;;;1999.90;999.90;;;3.70;99.90;;;;;;5034257;28;20168;-78
2021/04/16 04:11:34;;;;;;;1999.90;999.90;;;3.80;99.90;;;;;;5034679;28;20223;-78
2021/04/16 04:14:01;;;;;;;1999.90;999.90;;;3.90;99.90;;;;;;5034709;28;20587;-78
2021/04/16 04:16:28;;;;;;;1999.90;999.90;;;4.00;99.90;;;;;;5034319;28;20189;-78
2021/04/16 04:18:54;;;;;;;1999.90;999.90;;;4.00;99.90;;;;;;5034710;28;20169;-78
2021/04/16 04:21:19;;;;;;;1999.90;999.90;;;4.00;99.90;;;;;;5034495;28;20161;-78
2021/04/16 04:23:45;;;;;;;1999.90;999.90;;;3.90;99.90;;;;;;5034697;28;20176;-78
2021/04/16 04:26:11;;;;;;;1999.90;999.90;;;3.90;99.90;;;;;;5034293;28;20166;-78
2021/04/16 04:28:36;;;;;;;1999.90;999.90;;;3.80;99.90;;;;;;5035269;28;20173;-78
2021/04/16 04:31:02;;;;;;;1999.90;999.90;;;3.80;99.90;;;;;;5034644;28;20172;-78
2021/04/16 04:33:28;;;;;;;1999.90;999.90;;;3.80;99.90;;;;;;5034980;28;20176;-78
2021/04/16 04:35:54;;;;;;;1999.90;999.90;;;3.90;99.90;;;;;;5034432;28;20169;-78
2021/04/16 04:38:19;;;;;;;1999.90;999.90;;;3.80;99.90;;;;;;5034251;28;20212;-78
2021/04/16 04:40:45;;;;;;;1999.90;999.90;;;3.80;99.90;;;;;;5034257;28;20161;-78
2021/04/16 04:43:12;;;;;;;1999.90;999.90;;;3.80;99.90;;;;;;5035401;28;20403;-78
2021/04/16 04:45:37;;;;;;;1999.90;999.90;;;3.80;99.90;;;;;;5034018;28;20406;-78
2021/04/16 04:48:04;;;;;;;1999.90;999.90;;;3.80;99.90;;;;;;5033378;28;20680;-78
2021/04/16 04:50:30;;;;;;;1999.90;999.90;;;3.80;99.90;;;;;;5034261;28;20173;-78
2021/04/16 04:52:56;;;;;;;1999.90;999.90;;;3.70;99.90;;;;;;5034071;28;20240;-78
2021/04/16 04:55:26;;;;;;;1999.90;999.90;;;3.70;99.90;;;;;;5034012;28;20177;-78
2021/04/16 04:57:52;;;;;;;1999.90;999.90;;;3.80;99.90;;;;;;5033740;28;20189;-78
2021/04/16 05:00:19;;;;;;;1999.90;999.90;;;3.80;99.90;;;;;;5032365;28;20168;-78
2021/04/16 05:02:45;;;;;;;1999.90;999.90;;;3.80;99.90;;;;;;5034353;28;20192;-78
2021/04/16 05:05:12;;;;;;;1999.90;999.90;;;3.90;99.90;;;;;;5034658;28;20299;-78
2021/04/16 05:07:38;;;;;;;1999.90;999.90;;;3.90;99.90;;;;;;5034988;28;20182;-78
2021/04/16 05:10:05;;;;;;;1999.90;999.90;;;3.90;99.90;;;;;;5035355;28;20176;-78
2021/04/16 05:12:31;;;;;;;1999.90;999.90;;;3.80;99.90;;;;;;5035700;28;20252;-78
2021/04/16 05:14:56;;;;;;;1999.90;999.90;;;3.80;99.90;;;;;;5035754;28;20244;-78
2021/04/16 05:17:22;;;;;;;1999.90;999.90;;;3.80;99.90;;;;;;5033879;28;20683;-78
2021/04/16 05:19:48;;;;;;;1999.90;999.90;;;3.70;99.90;;;;;;5039353;28;20172;-78
2021/04/16 05:22:14;;;;;;;1999.90;999.90;;;3.80;99.90;;;;;;5041066;28;20656;-78
2021/04/16 05:24:39;;;;;;;1999.90;999.90;;;3.80;99.90;;;;;;5041909;28;20188;-78
2021/04/16 05:27:11;;;;;;;1999.90;999.90;;;3.90;99.90;;;;;;5041430;28;20185;-78
2021/04/16 05:29:37;;;;;;;1999.90;999.90;;;4.00;99.90;;;;;;5041859;28;20681;-78
2021/04/16 05:32:04;;;;;;;1999.90;999.90;;;4.00;99.90;;;;;;5039177;28;20165;-78
2021/04/16 05:34:29;;;;;;;1999.90;999.90;;;4.10;99.90;;;;;;5038818;28;20822;-79
2021/04/16 05:36:55;;;;;;;1999.90;999.90;;;4.10;99.90;;;;;;5040777;28;20201;-78
2021/04/16 05:39:21;;;;;;;1999.90;999.90;;;4.30;99.90;;;;;;5042309;28;20520;-78
2021/04/16 05:41:47;;;;;;;1999.90;999.90;;;4.40;99.90;;;;;;5042011;28;20399;-78
2021/04/16 05:44:13;;;;;;;1999.90;999.90;;;4.40;99.90;;;;;;5041398;28;20399;-78
2021/04/16 05:46:39;;;;;;;1999.90;999.90;;;4.50;99.90;;;;;;5042743;28;20181;-78
2021/04/16 05:49:07;;;;;;;1999.90;999.90;;;4.50;99.90;;;;;;5041750;28;20222;-78
2021/04/16 05:51:33;;;;;;;1999.90;999.90;;;4.60;99.90;;;;;;5041227;28;20700;-78
2021/04/16 05:53:58;;;;;;;1999.90;999.90;;;4.70;99.90;;;;;;5040845;28;20192;-78
2021/04/16 05:56:24;;;;;;;1999.90;999.90;;;4.80;99.90;;;;;;5042575;28;20189;-78
2021/04/16 05:58:50;;;;;;;1999.90;999.90;;;4.80;99.90;;;;;;5042958;28;20280;-79
2021/04/16 06:01:15;;;;;;;1999.90;999.90;;;4.90;99.90;;;;;;5042089;28;20629;-79
2021/04/16 06:03:44;;;;;;;1999.90;999.90;;;4.90;99.90;;;;;;5043048;28;20161;-79
2021/04/16 06:06:10;;;;;;;1999.90;999.90;;;5.00;99.90;;;;;;5043229;28;20625;-79
2021/04/16 06:08:36;;;;;;;1999.90;999.90;;;4.90;99.90;;;;;;5043172;28;20189;-79
2021/04/16 06:11:03;;;;;;;1999.90;999.90;;;5.00;99.90;;;;;;5041891;28;20236;-79
2021/04/16 06:13:29;;;;;;;1999.90;999.90;;;5.10;99.90;;;;;;5042743;28;20525;-79
2021/04/16 06:15:55;;;;;;;1999.90;999.90;;;5.10;99.90;;;;;;5042823;28;20169;-79
2021/04/16 06:18:23;;;;;;;1999.90;999.90;;;5.10;99.90;;;;;;5042734;28;20181;-79
2021/04/16 06:20:49;;;;;;;1999.90;999.90;;;5.30;99.90;;;;;;5042789;28;20400;-80
2021/04/16 06:23:16;;;;;;;1999.90;999.90;;;5.30;99.90;;;;;;5040891;28;20169;-79
2021/04/16 06:25:42;;;;;;;1999.90;999.90;;;5.40;99.90;;;;;;5043127;28;20169;-79
2021/04/16 06:28:09;;;;;;;1999.90;999.90;;;5.40;99.90;;;;;;5041910;28;20734;-79
2021/04/16 06:30:35;;;;;;;1999.90;999.90;;;5.50;99.90;;;;;;5039988;28;20181;-79
2021/04/16 06:33:12;;;;;;;1999.90;999.90;;;5.60;99.90;;;;;;5039802;28;20173;-79
2021/04/16 06:35:39;;;;;;;1999.90;999.90;;;5.60;99.90;;;;;;5040943;28;20605;-79
2021/04/16 06:38:05;;;;;;;1999.90;999.90;;;5.70;99.90;;;;;;5041157;28;20200;-79
2021/04/16 06:40:31;;;;;;;1999.90;999.90;;;5.80;99.90;;;;;;5041206;28;20532;-79
2021/04/16 06:42:58;;;;;;;1999.90;999.90;;;5.90;99.90;;;;;;5042031;28;20524;-78
2021/04/16 06:45:29;;;;;;;1999.90;999.90;;;5.90;99.90;;;;;;5039962;28;20165;-79
2021/04/16 06:47:55;;;;;;;1999.90;999.90;;;6.00;99.90;;;;;;5039701;28;20247;-79
2021/04/16 06:50:24;;;;;;;1999.90;999.90;;;6.10;99.90;;;;;;5041093;28;20173;-79
2021/04/16 06:53:05;;;;;;;1999.90;999.90;;;6.20;99.90;;;;;;5039358;28;20169;-79
2021/04/16 06:55:52;;;;;;;1999.90;999.90;;;6.30;99.90;;;;;;5040702;28;20156;-79
2021/04/16 06:58:33;;;;;;;1999.90;999.90;;;6.30;99.90;;;;;;5039176;28;20196;-79
2021/04/16 07:01:11;;;;;;;1999.90;999.90;;;6.40;99.90;;;;;;5040199;28;20520;-79
2021/04/16 07:03:48;;;;;;;1999.90;999.90;;;6.50;99.90;;;;;;5039888;28;20254;-79
2021/04/16 07:06:28;;;;;;;1999.90;999.90;;;6.60;99.90;;;;;;5038938;28;20201;-79
2021/04/16 07:09:15;;;;;;;1999.90;999.90;;;6.70;99.90;;;;;;5040503;28;20165;-79
2021/04/16 07:11:42;;;;;;;1999.90;999.90;;;6.70;99.90;;;;;;5040294;28;20169;-79
2021/04/16 07:14:37;;;;;;;1999.90;999.90;;;6.80;99.90;;;;;;5041006;28;20154;-79
2021/04/16 07:17:04;;;;;;;1999.90;999.90;;;6.90;99.90;;;;;;5035651;28;20209;-79
2021/04/16 07:19:31;;;;;;;1999.90;999.90;;;7.00;99.90;;;;;;5040687;28;20252;-79
2021/04/16 07:22:03;;;;;;;1999.90;999.90;;;7.00;99.90;;;;;;5039796;28;20169;-79
2021/04/16 07:24:29;;;;;;;1999.90;999.90;;;7.10;99.90;;;;;;5040386;28;20170;-79
2021/04/16 07:26:58;;;;;;;1999.90;999.90;;;7.20;99.90;;;;;;5041043;28;20224;-80
2021/04/16 07:29:46;;;;;;;1999.90;999.90;;;7.20;99.90;;;;;;5039979;28;20215;-79
2021/04/16 07:32:35;;;;;;;1999.90;999.90;;;7.30;99.90;;;;;;5040107;28;20157;-80
2021/04/16 07:35:22;;;;;;;1999.90;999.90;;;7.30;99.90;;;;;;5039671;28;20287;-79
2021/04/16 07:38:03;;;;;;;1999.90;999.90;;;7.40;99.90;;;;;;5038923;28;20193;-79
2021/04/16 07:40:34;;;;;;;1999.90;999.90;;;7.40;99.90;;;;;;5038014;28;20529;-79
2021/04/16 07:43:06;;;;;;;1999.90;999.90;;;7.60;99.90;;;;;;5038351;28;20193;-79
2021/04/16 07:45:37;;;;;;;1999.90;999.90;;;7.50;99.90;;;;;;5038848;28;20222;-79
2021/04/16 07:48:43;;;;;;;1999.90;999.90;;;7.60;99.90;;;;;;5041141;28;20201;-79
2021/04/16 07:51:10;;;;;;;1999.90;999.90;;;7.70;99.90;;;;;;5039645;28;20169;-79
2021/04/16 07:53:45;;;;;;;1999.90;999.90;;;7.70;99.90;;;;;;5039322;28;20172;-79
2021/04/16 07:56:10;;;;;;;1999.90;999.90;;;7.90;99.90;;;;;;5040849;28;20183;-79
2021/04/16 07:58:37;;;;;;;1999.90;999.90;;;7.80;99.90;;;;;;5040175;28;20192;-79
2021/04/16 08:01:27;;;;;;;1999.90;999.90;;;8.00;99.50;;;;;;5040376;28;20165;-79
2021/04/16 08:04:04;;;;;;;1999.90;999.90;;;8.00;93.50;;;;;;5040866;28;20153;-79
2021/04/16 08:06:41;;;;;;;1999.90;999.90;;;8.10;92.00;;;;;;5039943;28;20196;-79
2021/04/16 08:09:26;;;;;;;1999.90;999.90;;;8.10;89.50;;;;;;5039787;28;20244;-79
2021/04/16 08:12:00;;;;;;;1999.90;999.90;;;8.20;83.60;;;;;;5041013;28;20668;-79
2021/04/16 08:14:33;;;;;;;1999.90;999.90;;;8.20;88.20;;;;;;5041299;28;20175;-79
2021/04/16 08:17:39;;;;;;;1999.90;999.90;;;8.20;82.70;;;;;;5040712;28;20224;-79
2021/04/16 08:20:17;;;;;;;1999.90;999.90;;;8.20;81.60;;;;;;5039826;28;20161;-79
2021/04/16 08:22:43;;;;;;;1999.90;999.90;;;8.30;79.00;;;;;;5040207;28;20240;-79
2021/04/16 08:25:15;;;;;;;1999.90;999.90;;;8.40;78.20;;;;;;5040241;28;20217;-79
2021/04/16 08:27:46;;;;;;;1999.90;999.90;;;8.60;76.20;;;;;;5038939;28;20200;-79
2021/04/16 08:30:27;;;;;;;1999.90;999.90;;;8.70;74.90;;;;;;5039136;28;20161;-80
2021/04/16 08:33:11;;;;;;;1999.90;999.90;;;8.80;65.20;;;;;;5040174;28;20172;-79
2021/04/16 08:35:59;;;;;;;1999.90;999.90;;;8.80;74.70;;;;;;5038679;28;20180;-79
2021/04/16 08:38:30;;;;;;;1999.90;999.90;;;8.90;78.40;;;;;;5040448;28;20185;-79
2021/04/16 08:41:00;;;;;;;1999.90;999.90;;;8.90;85.70;;;;;;5039532;28;20183;-79
2021/04/16 08:43:48;;;;;;;1999.90;999.90;;;8.90;87.70;;;;;;5039770;28;20577;-79
2021/04/16 08:46:22;;;;;;;1999.90;999.90;;;9.10;90.70;;;;;;5040263;28;20660;-79
2021/04/16 08:48:55;;;;;;;1999.90;999.90;;;9.20;91.60;;;;;;5039112;28;20192;-79
2021/04/16 08:51:30;;;;;;;1999.90;999.90;;;9.10;90.30;;;;;;5039439;28;20172;-79
2021/04/16 08:54:08;;;;;;;1999.90;999.90;;;9.30;90.00;;;;;;5042655;28;20186;-80
2021/04/16 08:57:00;;;;;;;1999.90;999.90;;;9.20;87.00;;;;;;5043927;28;20181;-80
2021/04/16 08:59:30;;;;;;;1999.90;999.90;;;9.10;86.30;;;;;;5016210;28;20205;-79
2021/04/16 09:02:06;;;;;;;1999.90;999.90;;;9.20;83.10;;;;;;5044089;28;20154;-81
2021/04/16 09:04:49;;;;;;;1999.90;999.90;;;9.20;87.20;;;;;;5043612;28;20153;-80
2021/04/16 09:07:35;;;;;;;1999.90;999.90;;;9.20;84.90;;;;;;5043074;28;20280;-80
2021/04/16 09:10:04;;;;;;;1999.90;999.90;;;9.30;90.10;;;;;;5044352;28;20154;-79
2021/04/16 09:12:39;;;;;;;1999.90;999.90;;;9.30;82.80;;;;;;5042888;28;20663;-79
2021/04/16 09:15:25;;;;;;;1999.90;999.90;;;9.40;89.40;;;;;;5044452;28;20203;-79
2021/04/16 09:17:51;;;;;;;1999.90;999.90;;;9.60;84.90;;;;;;5033027;28;20260;-79
2021/04/16 09:20:22;;;;;;;1999.90;999.90;;;9.70;83.50;;;;;;5042536;28;20577;-80
2021/04/16 09:22:55;;;;;;;1999.90;999.90;;;9.90;81.10;;;;;;5043230;28;20158;-80
2021/04/16 09:25:30;;;;;;;1999.90;999.90;;;10.00;73.60;;;;;;5043718;28;20153;-80
2021/04/16 09:28:16;;;;;;;1999.90;999.90;;;10.10;66.00;;;;;;5043965;28;20185;-79
2021/04/16 09:30:42;;;;;;;1999.90;999.90;;;10.10;59.20;;;;;;5032680;28;20656;-79
2021/04/16 09:33:20;;;;;;;1999.90;999.90;;;9.90;68.90;;;;;;5043639;28;20169;-79
2021/04/16 09:35:58;;;;;;;1999.90;999.90;;;10.10;58.00;;;;;;5044040;28;20520;-79
2021/04/16 09:38:23;;;;;;;1999.90;999.90;;;10.30;45.50;;;;;;5043198;28;20224;-79
2021/04/16 09:41:13;;;;;;;1999.90;999.90;;;10.30;40.10;;;;;;5044475;28;20643;-79
2021/04/16 09:43:41;;;;;;;1999.90;999.90;;;10.30;33.90;;;;;;5045072;28;20158;-79
2021/04/16 09:46:31;;;;;;;1999.90;999.90;;;10.40;39.90;;;;;;5044337;28;20161;-79
2021/04/16 09:49:34;;;;;;;1999.90;999.90;;;10.50;29.90;;;;;;5044609;28;20209;-79
2021/04/16 09:52:26;;;;;;;1999.90;999.90;;;10.60;27.90;;;;;;5041115;28;20153;-79
2021/04/16 09:54:51;;;;;;;1999.90;999.90;;;10.70;30.80;;;;;;5031709;28;20193;-79
2021/04/16 09:57:17;;;;;;;1999.90;999.90;;;10.80;36.40;;;;;;5041077;28;20201;-79
2021/04/16 09:59:44;;;;;;;1999.90;999.90;;;10.90;38.70;;;;;;5040096;28;20165;-78
2021/04/16 10:02:19;;;;;;;1999.90;999.90;;;11.10;38.50;;;;;;5042333;28;20157;-79
2021/04/16 10:05:18;;;;;;;1999.90;999.90;;;11.40;37.20;;;;;;5041500;28;20160;-80
2021/04/16 10:07:49;;;;;;;1999.90;999.90;;;11.60;27.70;;;;;;5021925;28;20196;-79
2021/04/16 10:10:18;;;;;;;1999.90;999.90;;;11.60;24.30;;;;;;5041175;28;20636;-79
2021/04/16 10:12:43;;;;;;;1999.90;999.90;;;11.50;26.90;;;;;;5042072;28;20173;-78
2021/04/16 10:15:18;;;;;;;1999.90;999.90;;;11.60;26.40;;;;;;5042660;28;20177;-78
2021/04/16 10:17:58;;;;;;;1999.90;999.90;;;11.60;21.40;;;;;;5040871;28;20196;-78
2021/04/16 10:20:26;;;;;;;1999.90;999.90;;;11.50;16.10;;;;;;5041994;28;20166;-79
2021/04/16 10:23:15;;;;;;;1999.90;999.90;;;11.70;16.20;;;;;;5040697;28;20161;-79
2021/04/16 12:39:21;;;;;;;1999.90;999.90;;;12.00;1.00;;;;;;5040156;28;20160;-80
2021/04/16 12:41:54;;;;;;;1999.90;999.90;;;11.60;1.00;;;;;;5040311;28;20157;-79
2021/04/16 12:44:31;;;;;;;1999.90;999.90;;;11.50;1.00;;;;;;5039757;28;20396;-80
2021/04/16 12:47:02;;;;;;;1999.90;999.90;;;12.20;1.00;;;;;;5039997;28;20682;-79
2021/04/16 12:49:28;;;;;;;1999.90;999.90;;;12.40;1.00;;;;;;5039909;28;20238;-79
2021/04/16 12:51:54;;;;;;;1999.90;999.90;;;12.50;1.00;;;;;;5040507;28;20169;-79
2021/04/16 12:54:19;;;;;;;1999.90;999.90;;;12.80;1.00;;;;;;5041141;28;20792;-79
2021/04/16 12:56:48;;;;;;;1999.90;999.90;;;12.90;1.00;;;;;;5038769;28;20530;-80
2021/04/16 12:59:25;;;;;;;1999.90;999.90;;;13.30;1.00;;;;;;5038988;28;20173;-79
2021/04/16 13:01:52;;;;;;;1999.90;999.90;;;13.30;1.00;;;;;;5040601;28;20661;-80
2021/04/16 13:04:22;;;;;;;1999.90;999.90;;;13.30;1.00;;;;;;5041731;28;20217;-79
2021/04/16 13:06:49;;;;;;;1999.90;999.90;;;13.30;1.00;;;;;;5041141;28;20227;-79
2021/04/16 13:09:17;;;;;;;1999.90;999.90;;;13.40;1.00;;;;;;5042274;28;20180;-79
2021/04/16 13:11:43;;;;;;;1999.90;999.90;;;13.40;1.00;;;;;;5042176;28;20184;-79
2021/04/16 13:14:09;;;;;;;1999.90;999.90;;;13.40;1.00;;;;;;5041223;28;20162;-79
2021/04/16 13:16:36;;;;;;;1999.90;999.90;;;13.40;1.00;;;;;;5040235;28;20730;-79
2021/04/16 13:19:07;;;;;;;1999.90;999.90;;;13.40;1.00;;;;;;5041089;28;20288;-79
2021/04/16 13:21:36;;;;;;;1999.90;999.90;;;13.40;1.00;;;;;;5042265;28;20149;-79
2021/04/16 13:24:04;;;;;;;1999.90;999.90;;;13.30;1.00;;;;;;5041427;28;20161;-79
2021/04/16 13:26:31;;;;;;;1999.90;999.90;;;13.30;1.00;;;;;;5042623;28;20188;-79
2021/04/16 13:28:57;;;;;;;1999.90;999.90;;;13.10;1.00;;;;;;5040552;28;20231;-79
2021/04/16 13:31:25;;;;;;;1999.90;999.90;;;13.30;1.00;;;;;;5041326;28;20217;-79
2021/04/16 13:33:53;;;;;;;1999.90;999.90;;;13.60;1.00;;;;;;5039054;28;20204;-79
2021/04/16 13:36:23;;;;;;;1999.90;999.90;;;13.80;1.00;;;;;;5039028;28;20196;-79
2021/04/16 13:38:49;;;;;;;1999.90;999.90;;;14.00;1.00;;;;;;5038301;28;20192;-79
2021/04/16 13:41:14;;;;;;;1999.90;999.90;;;14.00;1.00;;;;;;5042418;28;20214;-79
2021/04/16 13:43:40;;;;;;;1999.90;999.90;;;13.80;1.00;;;;;;5042198;28;20423;-79
2021/04/16 13:46:13;;;;;;;1999.90;999.90;;;13.80;1.00;;;;;;5042870;28;20189;-79
2021/04/16 13:48:39;;;;;;;1999.90;999.90;;;13.80;1.00;;;;;;5043509;28;20192;-79
2021/04/16 13:51:05;;;;;;;1999.90;999.90;;;13.90;1.00;;;;;;5043988;28;20411;-79
2021/04/16 13:53:31;;;;;;;1999.90;999.90;;;14.10;1.00;;;;;;5043166;28;20196;-79
2021/04/16 13:55:56;;;;;;;1999.90;999.90;;;13.70;1.00;;;;;;5043017;28;20477;-80
2021/04/16 13:58:22;;;;;;;1999.90;999.90;;;13.10;1.00;;;;;;5042644;28;20227;-80
2021/04/16 14:00:48;;;;;;;1999.90;999.90;;;12.70;1.00;;;;;;5041693;28;20199;-80
2021/04/16 14:03:30;;;;;;;1999.90;999.90;;;12.90;1.00;;;;;;5042517;28;20189;-80
2021/04/16 14:05:59;;;;;;;1999.90;999.90;;;13.20;1.00;;;;;;5042792;28;20303;-80
2021/04/16 14:08:31;;;;;;;1999.90;999.90;;;13.10;1.00;;;;;;5042855;28;20165;-79
2021/04/16 14:10:57;;;;;;;1999.90;999.90;;;13.50;1.00;;;;;;5042285;28;20636;-80
2021/04/16 14:13:23;;;;;;;1999.90;999.90;;;13.70;1.00;;;;;;5041000;28;20411;-79
2021/04/16 14:15:49;;;;;;;1999.90;999.90;;;13.50;1.00;;;;;;5041663;28;20407;-79
2021/04/16 14:18:37;;;;;;;1999.90;999.90;;;13.70;1.00;;;;;;5042120;28;20201;-80
2021/04/16 14:21:10;;;;;;;1999.90;999.90;;;14.10;1.00;;;;;;5041794;28;20245;-79
2021/04/16 14:23:36;;;;;;;1999.90;999.90;;;14.10;1.00;;;;;;5040090;28;20196;-79
2021/04/16 14:26:03;;;;;;;1999.90;999.90;;;14.20;1.00;;;;;;5041283;28;20408;-79
2021/04/16 14:28:29;;;;;;;1999.90;999.90;;;14.20;1.00;;;;;;5042365;28;20185;-80
2021/04/16 14:30:55;;;;;;;1999.90;999.90;;;13.90;1.00;;;;;;5041339;28;20640;-80
2021/04/16 14:33:28;;;;;;;1999.90;999.90;;;13.80;1.00;;;;;;5041685;28;20193;-79
2021/04/16 14:35:55;;;;;;;1999.90;999.90;;;14.20;1.00;;;;;;5041968;28;20168;-80